Bellingham, Massachusetts
Current Conditions -  °F | °C
As of 6:15 AM on Thursday 23 Oct 2014 (Local Time) from KSFZ Reporting Station
Overcast Overcast  
Wind Chill: 41°   Ceiling: 800
Heat Index: 48°   Visibility: 10mi
Dew Point: 39°   Wind: 23mph
Humidity: 71%   Direction: 10°N
Pressure: 29.61"   Gusts: 35mph
Location:  42.09°N, 71.47°W
Report Text: KSFZ 231015Z 01020G30KT 10SM OVC008 09/04 A2961 RMK AO1 P0001
Loading
Personal Weather Stations






























Interactive Weather Map
Tropical Storm Tracking
New forecast layout! Learn more

10-Day Weather Forecast

Advertisements
Track Severe Weather on mobile